sensor_id;sensor_type;location;lat;lon;timestamp;P1;durP1;ratioP1;P2;durP2;ratioP2
64022;SDS011;50264;52.088;5.296;2023-03-03T00:00:55;26.6;;;21.1;;
64022;SDS011;50264;52.088;5.296;2023-03-03T00:04:07;28.1;;;21.1;;
64022;SDS011;50264;52.088;5.296;2023-03-03T00:05:43;28.1;;;21.1;;
64022;SDS011;50264;52.088;5.296;2023-03-03T00:07:19;28.2;;;20.9;;
64022;SDS011;50264;52.088;5.296;2023-03-03T00:08:55;25.6;;;20.2;;
64022;SDS011;50264;52.088;5.296;2023-03-03T00:12:16;24.9;;;19.91;;
64022;SDS011;50264;52.088;5.296;2023-03-03T00:13:57;28.2;;;20.6;;
64022;SDS011;50264;52.088;5.296;2023-03-03T00:15:33;25.9;;;19.91;;
64022;SDS011;50264;52.088;5.296;2023-03-03T00:18:55;27.5;;;19.11;;
64022;SDS011;50264;52.088;5.296;2023-03-03T00:20:34;28.8;;;20.0;;
64022;SDS011;50264;52.088;5.296;2023-03-03T00:22:13;23.7;;;17.91;;
64022;SDS011;50264;52.088;5.296;2023-03-03T00:24:14;29.7;;;18.91;;
64022;SDS011;50264;52.088;5.296;2023-03-03T00:25:54;26.5;;;19.11;;
64022;SDS011;50264;52.088;5.296;2023-03-03T00:29:28;21.8;;;17.61;;
64022;SDS011;50264;52.088;5.296;2023-03-03T00:31:11;26.2;;;17.41;;
64022;SDS011;50264;52.088;5.296;2023-03-03T00:32:51;24.0;;;17.8;;
64022;SDS011;50264;52.088;5.296;2023-03-03T00:34:28;21.2;;;16.9;;
64022;SDS011;50264;52.088;5.296;2023-03-03T00:36:09;23.1;;;17.11;;
64022;SDS011;50264;52.088;5.296;2023-03-03T00:38:11;22.5;;;17.3;;
64022;SDS011;50264;52.088;5.296;2023-03-03T00:41:29;24.3;;;17.3;;
64022;SDS011;50264;52.088;5.296;2023-03-03T00:43:11;22.3;;;17.2;;
64022;SDS011;50264;52.088;5.296;2023-03-03T00:44:55;23.7;;;17.91;;
64022;SDS011;50264;52.088;5.296;2023-03-03T00:46:32;25.5;;;17.8;;
64022;SDS011;50264;52.088;5.296;2023-03-03T00:50:15;26.3;;;17.91;;
64022;SDS011;50264;52.088;5.296;2023-03-03T00:52:00;23.2;;;18.11;;
64022;SDS011;50264;52.088;5.296;2023-03-03T00:53:36;26.8;;;17.7;;
64022;SDS011;50264;52.088;5.296;2023-03-03T00:55:12;22.8;;;17.11;;
64022;SDS011;50264;52.088;5.296;2023-03-03T00:58:25;22.7;;;17.5;;
64022;SDS011;50264;52.088;5.296;2023-03-03T01:00:02;26.3;;;18.2;;
64022;SDS011;50264;52.088;5.296;2023-03-03T01:01:39;23.4;;;17.91;;
64022;SDS011;50264;52.088;5.296;2023-03-03T01:03:16;26.8;;;19.8;;
64022;SDS011;50264;52.088;5.296;2023-03-03T01:06:31;29.0;;;20.41;;
64022;SDS011;50264;52.088;5.296;2023-03-03T01:08:07;25.7;;;19.0;;
64022;SDS011;50264;52.088;5.296;2023-03-03T01:09:44;29.8;;;18.8;;
64022;SDS011;50264;52.088;5.296;2023-03-03T01:13:00;26.4;;;18.41;;
64022;SDS011;50264;52.088;5.296;2023-03-03T01:14:38;26.6;;;19.11;;
64022;SDS011;50264;52.088;5.296;2023-03-03T01:16:15;30.5;;;21.0;;
64022;SDS011;50264;52.088;5.296;2023-03-03T01:19:29;30.0;;;20.5;;
64022;SDS011;50264;52.088;5.296;2023-03-03T01:21:05;27.1;;;19.91;;
64022;SDS011;50264;52.088;5.296;2023-03-03T01:22:42;28.1;;;21.4;;
64022;SDS011;50264;52.088;5.296;2023-03-03T01:24:18;28.5;;;21.6;;
64022;SDS011;50264;52.088;5.296;2023-03-03T01:27:33;32.4;;;20.7;;
64022;SDS011;50264;52.088;5.296;2023-03-03T01:29:10;25.8;;;21.1;;
64022;SDS011;50264;52.088;5.296;2023-03-03T01:30:46;27.6;;;20.8;;
64022;SDS011;50264;52.088;5.296;2023-03-03T01:33:58;28.9;;;20.8;;
64022;SDS011;50264;52.088;5.296;2023-03-03T01:35:34;30.4;;;23.0;;
64022;SDS011;50264;52.088;5.296;2023-03-03T01:37:11;26.4;;;21.8;;
64022;SDS011;50264;52.088;5.296;2023-03-03T01:40:24;30.7;;;21.7;;
64022;SDS011;50264;52.088;5.296;2023-03-03T01:42:05;31.7;;;23.9;;
64022;SDS011;50264;52.088;5.296;2023-03-03T01:43:42;31.1;;;23.2;;
64022;SDS011;50264;52.088;5.296;2023-03-03T01:45:20;31.7;;;23.8;;
64022;SDS011;50264;52.088;5.296;2023-03-03T01:48:42;40.0;;;26.4;;
64022;SDS011;50264;52.088;5.296;2023-03-03T01:50:26;32.9;;;24.6;;
64022;SDS011;50264;52.088;5.296;2023-03-03T01:52:09;34.31;;;24.8;;
64022;SDS011;50264;52.088;5.296;2023-03-03T01:53:50;37.31;;;26.8;;
64022;SDS011;50264;52.088;5.296;2023-03-03T01:57:14;34.9;;;27.4;;
64022;SDS011;50264;52.088;5.296;2023-03-03T01:58:55;36.1;;;26.7;;
64022;SDS011;50264;52.088;5.296;2023-03-03T02:00:37;39.1;;;28.0;;
64022;SDS011;50264;52.088;5.296;2023-03-03T02:02:15;39.31;;;27.8;;
64022;SDS011;50264;52.088;5.296;2023-03-03T02:05:28;39.1;;;27.7;;
64022;SDS011;50264;52.088;5.296;2023-03-03T02:07:05;41.3;;;29.0;;
64022;SDS011;50264;52.088;5.296;2023-03-03T02:08:45;39.6;;;29.6;;
64022;SDS011;50264;52.088;5.296;2023-03-03T02:10:28;37.4;;;28.6;;
64022;SDS011;50264;52.088;5.296;2023-03-03T02:13:47;34.0;;;27.5;;
64022;SDS011;50264;52.088;5.296;2023-03-03T02:15:23;38.71;;;27.5;;
64022;SDS011;50264;52.088;5.296;2023-03-03T02:17:02;43.3;;;29.8;;
64022;SDS011;50264;52.088;5.296;2023-03-03T02:18:38;38.0;;;27.6;;
64022;SDS011;50264;52.088;5.296;2023-03-03T02:22:00;40.4;;;28.9;;
64022;SDS011;50264;52.088;5.296;2023-03-03T02:23:39;37.1;;;28.1;;
64022;SDS011;50264;52.088;5.296;2023-03-03T02:25:26;36.81;;;28.4;;
64022;SDS011;50264;52.088;5.296;2023-03-03T02:27:09;44.3;;;29.2;;
64022;SDS011;50264;52.088;5.296;2023-03-03T02:30:21;40.71;;;29.7;;
64022;SDS011;50264;52.088;5.296;2023-03-03T02:32:00;43.0;;;29.2;;
64022;SDS011;50264;52.088;5.296;2023-03-03T02:33:37;42.8;;;30.2;;
64022;SDS011;50264;52.088;5.296;2023-03-03T02:37:09;42.1;;;29.7;;
64022;SDS011;50264;52.088;5.296;2023-03-03T02:38:47;40.5;;;29.2;;
64022;SDS011;50264;52.088;5.296;2023-03-03T02:40:30;41.7;;;29.4;;
64022;SDS011;50264;52.088;5.296;2023-03-03T02:42:13;42.6;;;30.2;;
64022;SDS011;50264;52.088;5.296;2023-03-03T02:43:55;37.9;;;29.7;;
64022;SDS011;50264;52.088;5.296;2023-03-03T02:47:17;45.5;;;30.2;;
64022;SDS011;50264;52.088;5.296;2023-03-03T02:48:53;41.9;;;29.3;;
64022;SDS011;50264;52.088;5.296;2023-03-03T02:50:29;41.8;;;30.3;;
64022;SDS011;50264;52.088;5.296;2023-03-03T02:52:06;43.5;;;29.6;;
64022;SDS011;50264;52.088;5.296;2023-03-03T02:55:22;41.2;;;29.9;;
64022;SDS011;50264;52.088;5.296;2023-03-03T02:56:58;43.3;;;29.8;;
64022;SDS011;50264;52.088;5.296;2023-03-03T02:58:35;44.7;;;30.1;;
64022;SDS011;50264;52.088;5.296;2023-03-03T03:01:50;41.3;;;27.7;;
64022;SDS011;50264;52.088;5.296;2023-03-03T03:03:27;38.5;;;27.8;;
64022;SDS011;50264;52.088;5.296;2023-03-03T03:05:03;41.5;;;27.9;;
64022;SDS011;50264;52.088;5.296;2023-03-03T03:08:17;37.4;;;27.5;;
64022;SDS011;50264;52.088;5.296;2023-03-03T03:09:53;42.6;;;29.9;;
64022;SDS011;50264;52.088;5.296;2023-03-03T03:11:29;44.8;;;27.2;;
64022;SDS011;50264;52.088;5.296;2023-03-03T03:13:05;37.9;;;27.8;;
64022;SDS011;50264;52.088;5.296;2023-03-03T03:16:18;40.31;;;29.9;;
64022;SDS011;50264;52.088;5.296;2023-03-03T03:17:54;48.1;;;30.5;;
64022;SDS011;50264;52.088;5.296;2023-03-03T03:19:30;38.6;;;27.7;;
64022;SDS011;50264;52.088;5.296;2023-03-03T03:22:45;46.8;;;30.2;;
64022;SDS011;50264;52.088;5.296;2023-03-03T03:24:21;44.8;;;30.7;;
64022;SDS011;50264;52.088;5.296;2023-03-03T03:25:57;43.1;;;29.7;;
64022;SDS011;50264;52.088;5.296;2023-03-03T03:29:10;42.1;;;29.3;;
64022;SDS011;50264;52.088;5.296;2023-03-03T03:30:46;42.7;;;30.0;;
64022;SDS011;50264;52.088;5.296;2023-03-03T03:32:21;45.2;;;30.9;;
64022;SDS011;50264;52.088;5.296;2023-03-03T03:33:57;46.6;;;29.4;;
64022;SDS011;50264;52.088;5.296;2023-03-03T03:37:10;45.7;;;30.7;;
64022;SDS011;50264;52.088;5.296;2023-03-03T03:38:47;49.9;;;31.5;;
64022;SDS011;50264;52.088;5.296;2023-03-03T03:40:23;44.8;;;30.9;;
64022;SDS011;50264;52.088;5.296;2023-03-03T03:43:35;44.4;;;30.1;;
64022;SDS011;50264;52.088;5.296;2023-03-03T03:45:11;46.6;;;31.5;;
64022;SDS011;50264;52.088;5.296;2023-03-03T03:46:48;43.4;;;29.7;;
64022;SDS011;50264;52.088;5.296;2023-03-03T03:50:02;49.5;;;30.8;;
64022;SDS011;50264;52.088;5.296;2023-03-03T03:51:38;42.5;;;28.7;;
64022;SDS011;50264;52.088;5.296;2023-03-03T03:53:14;40.9;;;28.8;;
64022;SDS011;50264;52.088;5.296;2023-03-03T03:54:51;39.21;;;29.1;;
64022;SDS011;50264;52.088;5.296;2023-03-03T03:59:40;45.1;;;29.8;;
64022;SDS011;50264;52.088;5.296;2023-03-03T04:01:16;50.4;;;29.4;;
64022;SDS011;50264;52.088;5.296;2023-03-03T04:04:29;45.4;;;28.9;;
64022;SDS011;50264;52.088;5.296;2023-03-03T04:06:05;42.4;;;28.4;;
64022;SDS011;50264;52.088;5.296;2023-03-03T04:07:41;42.6;;;26.0;;
64022;SDS011;50264;52.088;5.296;2023-03-03T04:10:54;39.0;;;26.2;;
64022;SDS011;50264;52.088;5.296;2023-03-03T04:12:30;35.9;;;24.9;;
64022;SDS011;50264;52.088;5.296;2023-03-03T04:14:07;37.4;;;23.3;;
64022;SDS011;50264;52.088;5.296;2023-03-03T04:17:19;39.0;;;25.0;;
64022;SDS011;50264;52.088;5.296;2023-03-03T04:18:57;36.81;;;24.2;;
64022;SDS011;50264;52.088;5.296;2023-03-03T04:20:33;31.3;;;22.6;;
64022;SDS011;50264;52.088;5.296;2023-03-03T04:22:09;35.6;;;24.1;;
64022;SDS011;50264;52.088;5.296;2023-03-03T04:25:22;35.1;;;22.5;;
64022;SDS011;50264;52.088;5.296;2023-03-03T04:26:59;36.71;;;23.1;;
64022;SDS011;50264;52.088;5.296;2023-03-03T04:28:35;33.9;;;21.9;;
64022;SDS011;50264;52.088;5.296;2023-03-03T04:31:50;34.0;;;22.6;;
64022;SDS011;50264;52.088;5.296;2023-03-03T04:33:26;28.3;;;19.61;;
64022;SDS011;50264;52.088;5.296;2023-03-03T04:35:02;31.3;;;19.0;;
64022;SDS011;50264;52.088;5.296;2023-03-03T04:36:40;25.8;;;18.2;;
64022;SDS011;50264;52.088;5.296;2023-03-03T04:39:53;33.21;;;19.91;;
64022;SDS011;50264;52.088;5.296;2023-03-03T04:41:29;26.2;;;19.11;;
64022;SDS011;50264;52.088;5.296;2023-03-03T04:43:05;25.3;;;18.41;;
64022;SDS011;50264;52.088;5.296;2023-03-03T04:46:17;33.6;;;19.11;;
64022;SDS011;50264;52.088;5.296;2023-03-03T04:47:54;30.0;;;18.91;;
64022;SDS011;50264;52.088;5.296;2023-03-03T04:49:30;36.21;;;20.3;;
64022;SDS011;50264;52.088;5.296;2023-03-03T04:52:43;34.71;;;21.7;;
64022;SDS011;50264;52.088;5.296;2023-03-03T04:54:19;30.4;;;20.0;;
64022;SDS011;50264;52.088;5.296;2023-03-03T04:55:55;32.6;;;21.9;;
64022;SDS011;50264;52.088;5.296;2023-03-03T04:59:06;32.8;;;19.91;;
64022;SDS011;50264;52.088;5.296;2023-03-03T05:00:42;34.71;;;22.0;;
64022;SDS011;50264;52.088;5.296;2023-03-03T05:02:19;38.21;;;20.8;;
64022;SDS011;50264;52.088;5.296;2023-03-03T05:03:55;34.81;;;21.2;;
64022;SDS011;50264;52.088;5.296;2023-03-03T05:07:07;33.6;;;20.6;;
64022;SDS011;50264;52.088;5.296;2023-03-03T05:08:43;32.8;;;20.7;;
64022;SDS011;50264;52.088;5.296;2023-03-03T05:10:19;30.5;;;21.9;;
64022;SDS011;50264;52.088;5.296;2023-03-03T05:13:31;38.21;;;22.7;;
64022;SDS011;50264;52.088;5.296;2023-03-03T05:15:08;34.21;;;21.1;;
64022;SDS011;50264;52.088;5.296;2023-03-03T05:16:47;34.6;;;21.1;;
64022;SDS011;50264;52.088;5.296;2023-03-03T05:20:01;38.0;;;20.5;;
64022;SDS011;50264;52.088;5.296;2023-03-03T05:21:38;27.4;;;19.5;;
64022;SDS011;50264;52.088;5.296;2023-03-03T05:23:14;30.9;;;21.2;;
64022;SDS011;50264;52.088;5.296;2023-03-03T05:24:51;32.3;;;21.3;;
64022;SDS011;50264;52.088;5.296;2023-03-03T05:28:04;27.5;;;19.5;;
64022;SDS011;50264;52.088;5.296;2023-03-03T05:29:40;29.8;;;20.0;;
64022;SDS011;50264;52.088;5.296;2023-03-03T05:31:16;29.8;;;20.0;;
64022;SDS011;50264;52.088;5.296;2023-03-03T05:34:28;31.5;;;20.8;;
64022;SDS011;50264;52.088;5.296;2023-03-03T05:36:04;29.1;;;19.8;;
64022;SDS011;50264;52.088;5.296;2023-03-03T05:37:41;33.1;;;21.9;;
64022;SDS011;50264;52.088;5.296;2023-03-03T05:40:54;34.31;;;20.9;;
64022;SDS011;50264;52.088;5.296;2023-03-03T05:42:30;32.8;;;21.6;;
64022;SDS011;50264;52.088;5.296;2023-03-03T05:44:06;33.1;;;20.11;;
64022;SDS011;50264;52.088;5.296;2023-03-03T05:45:43;36.0;;;22.7;;
64022;SDS011;50264;52.088;5.296;2023-03-03T05:48:55;42.0;;;22.5;;
64022;SDS011;50264;52.088;5.296;2023-03-03T05:50:31;33.0;;;21.2;;
64022;SDS011;50264;52.088;5.296;2023-03-03T05:52:08;34.5;;;22.2;;
64022;SDS011;50264;52.088;5.296;2023-03-03T05:55:20;32.6;;;21.8;;
64022;SDS011;50264;52.088;5.296;2023-03-03T05:56:56;39.6;;;23.1;;
64022;SDS011;50264;52.088;5.296;2023-03-03T05:58:32;29.4;;;20.6;;
64022;SDS011;50264;52.088;5.296;2023-03-03T06:01:46;33.6;;;22.6;;
64022;SDS011;50264;52.088;5.296;2023-03-03T06:03:22;37.1;;;22.9;;
64022;SDS011;50264;52.088;5.296;2023-03-03T06:04:59;49.4;;;23.7;;
64022;SDS011;50264;52.088;5.296;2023-03-03T06:08:11;36.21;;;21.5;;
64022;SDS011;50264;52.088;5.296;2023-03-03T06:09:47;37.1;;;20.5;;
64022;SDS011;50264;52.088;5.296;2023-03-03T06:11:23;36.31;;;21.2;;
64022;SDS011;50264;52.088;5.296;2023-03-03T06:12:59;32.71;;;21.1;;
64022;SDS011;50264;52.088;5.296;2023-03-03T06:16:11;33.8;;;20.7;;
64022;SDS011;50264;52.088;5.296;2023-03-03T06:17:48;39.4;;;21.3;;
64022;SDS011;50264;52.088;5.296;2023-03-03T06:19:24;33.21;;;20.5;;
64022;SDS011;50264;52.088;5.296;2023-03-03T06:22:37;30.3;;;20.3;;
64022;SDS011;50264;52.088;5.296;2023-03-03T06:24:13;33.1;;;22.1;;
64022;SDS011;50264;52.088;5.296;2023-03-03T06:25:49;31.0;;;21.1;;
64022;SDS011;50264;52.088;5.296;2023-03-03T06:29:02;34.1;;;20.6;;
64022;SDS011;50264;52.088;5.296;2023-03-03T06:30:38;29.5;;;19.8;;
64022;SDS011;50264;52.088;5.296;2023-03-03T06:32:15;34.21;;;20.6;;
64022;SDS011;50264;52.088;5.296;2023-03-03T06:33:51;34.81;;;21.6;;
64022;SDS011;50264;52.088;5.296;2023-03-03T06:37:04;32.4;;;19.8;;
64022;SDS011;50264;52.088;5.296;2023-03-03T06:38:41;28.4;;;20.41;;
64022;SDS011;50264;52.088;5.296;2023-03-03T06:40:17;29.2;;;19.5;;
64022;SDS011;50264;52.088;5.296;2023-03-03T06:43:30;34.4;;;20.5;;
64022;SDS011;50264;52.088;5.296;2023-03-03T06:45:06;35.0;;;21.5;;
64022;SDS011;50264;52.088;5.296;2023-03-03T06:46:43;34.71;;;21.1;;
64022;SDS011;50264;52.088;5.296;2023-03-03T06:49:55;34.71;;;21.1;;
64022;SDS011;50264;52.088;5.296;2023-03-03T06:51:32;34.31;;;20.5;;
64022;SDS011;50264;52.088;5.296;2023-03-03T06:53:11;32.3;;;20.3;;
64022;SDS011;50264;52.088;5.296;2023-03-03T06:54:50;33.8;;;20.9;;
64022;SDS011;50264;52.088;5.296;2023-03-03T06:58:11;32.1;;;21.0;;
64022;SDS011;50264;52.088;5.296;2023-03-03T06:59:51;39.4;;;21.4;;
64022;SDS011;50264;52.088;5.296;2023-03-03T07:01:29;31.5;;;19.8;;
64022;SDS011;50264;52.088;5.296;2023-03-03T07:03:11;29.6;;;20.41;;
64022;SDS011;50264;52.088;5.296;2023-03-03T07:06:31;31.2;;;19.61;;
64022;SDS011;50264;52.088;5.296;2023-03-03T07:08:09;30.4;;;18.61;;
64022;SDS011;50264;52.088;5.296;2023-03-03T07:09:51;32.1;;;19.5;;
64022;SDS011;50264;52.088;5.296;2023-03-03T07:14:57;33.4;;;20.6;;
64022;SDS011;50264;52.088;5.296;2023-03-03T07:16:47;29.1;;;18.61;;
64022;SDS011;50264;52.088;5.296;2023-03-03T07:18:33;31.4;;;18.5;;
64022;SDS011;50264;52.088;5.296;2023-03-03T07:20:14;30.5;;;19.0;;
64022;SDS011;50264;52.088;5.296;2023-03-03T07:25:18;26.6;;;17.8;;
64022;SDS011;50264;52.088;5.296;2023-03-03T07:27:08;30.0;;;19.5;;
64022;SDS011;50264;52.088;5.296;2023-03-03T07:28:50;31.9;;;20.0;;
64022;SDS011;50264;52.088;5.296;2023-03-03T07:30:29;30.2;;;18.11;;
64022;SDS011;50264;52.088;5.296;2023-03-03T07:33:57;29.9;;;18.3;;
64022;SDS011;50264;52.088;5.296;2023-03-03T07:35:36;29.7;;;19.3;;
64022;SDS011;50264;52.088;5.296;2023-03-03T07:37:15;28.7;;;19.91;;
64022;SDS011;50264;52.088;5.296;2023-03-03T07:39:10;33.21;;;19.91;;
64022;SDS011;50264;52.088;5.296;2023-03-03T07:41:04;32.1;;;19.7;;
64022;SDS011;50264;52.088;5.296;2023-03-03T07:44:24;32.5;;;18.5;;
64022;SDS011;50264;52.088;5.296;2023-03-03T07:46:16;31.8;;;18.91;;
64022;SDS011;50264;52.088;5.296;2023-03-03T07:48:00;28.8;;;19.41;;
64022;SDS011;50264;52.088;5.296;2023-03-03T07:49:55;34.31;;;19.3;;
64022;SDS011;50264;52.088;5.296;2023-03-03T07:51:36;33.21;;;19.61;;
64022;SDS011;50264;52.088;5.296;2023-03-03T07:55:26;29.5;;;17.8;;
64022;SDS011;50264;52.088;5.296;2023-03-03T07:57:11;27.6;;;17.91;;
64022;SDS011;50264;52.088;5.296;2023-03-03T07:58:57;29.6;;;18.11;;
64022;SDS011;50264;52.088;5.296;2023-03-03T08:01:36;28.9;;;17.61;;
64022;SDS011;50264;52.088;5.296;2023-03-03T08:03:15;24.8;;;17.0;;
64022;SDS011;50264;52.088;5.296;2023-03-03T08:04:53;33.4;;;17.8;;
64022;SDS011;50264;52.088;5.296;2023-03-03T08:06:40;30.4;;;18.11;;
64022;SDS011;50264;52.088;5.296;2023-03-03T08:08:25;27.4;;;17.61;;
64022;SDS011;50264;52.088;5.296;2023-03-03T08:10:07;23.6;;;15.9;;
64022;SDS011;50264;52.088;5.296;2023-03-03T08:14:12;27.3;;;17.8;;
64022;SDS011;50264;52.088;5.296;2023-03-03T08:15:55;28.7;;;17.91;;
64022;SDS011;50264;52.088;5.296;2023-03-03T08:17:35;25.7;;;17.3;;
64022;SDS011;50264;52.088;5.296;2023-03-03T08:19:14;31.7;;;18.5;;
64022;SDS011;50264;52.088;5.296;2023-03-03T08:20:54;28.8;;;18.5;;
64022;SDS011;50264;52.088;5.296;2023-03-03T08:24:10;24.4;;;16.61;;
64022;SDS011;50264;52.088;5.296;2023-03-03T08:25:46;30.3;;;18.5;;
64022;SDS011;50264;52.088;5.296;2023-03-03T08:27:24;25.1;;;16.2;;
64022;SDS011;50264;52.088;5.296;2023-03-03T08:29:00;24.8;;;17.41;;
64022;SDS011;50264;52.088;5.296;2023-03-03T08:32:13;24.4;;;16.61;;
64022;SDS011;50264;52.088;5.296;2023-03-03T08:33:50;26.2;;;16.4;;
64022;SDS011;50264;52.088;5.296;2023-03-03T08:35:27;27.5;;;17.8;;
64022;SDS011;50264;52.088;5.296;2023-03-03T08:38:39;28.9;;;16.9;;
64022;SDS011;50264;52.088;5.296;2023-03-03T08:40:16;25.6;;;16.0;;
64022;SDS011;50264;52.088;5.296;2023-03-03T08:41:52;24.5;;;17.3;;
64022;SDS011;50264;52.088;5.296;2023-03-03T08:45:05;31.5;;;17.5;;
64022;SDS011;50264;52.088;5.296;2023-03-03T08:46:42;26.8;;;16.11;;
64022;SDS011;50264;52.088;5.296;2023-03-03T08:48:18;25.9;;;16.0;;
64022;SDS011;50264;52.088;5.296;2023-03-03T08:49:56;25.6;;;16.5;;
64022;SDS011;50264;52.088;5.296;2023-03-03T08:53:08;26.7;;;16.61;;
64022;SDS011;50264;52.088;5.296;2023-03-03T08:54:45;28.7;;;17.2;;
64022;SDS011;50264;52.088;5.296;2023-03-03T08:56:21;22.3;;;15.1;;
64022;SDS011;50264;52.088;5.296;2023-03-03T08:59:34;25.4;;;15.5;;
64022;SDS011;50264;52.088;5.296;2023-03-03T09:01:10;23.2;;;15.4;;
64022;SDS011;50264;52.088;5.296;2023-03-03T09:02:46;32.21;;;16.2;;
64022;SDS011;50264;52.088;5.296;2023-03-03T09:05:59;21.6;;;14.9;;
64022;SDS011;50264;52.088;5.296;2023-03-03T09:07:35;23.5;;;14.8;;
64022;SDS011;50264;52.088;5.296;2023-03-03T09:09:12;23.5;;;16.0;;
64022;SDS011;50264;52.088;5.296;2023-03-03T09:10:49;23.0;;;14.5;;
64022;SDS011;50264;52.088;5.296;2023-03-03T09:14:08;23.0;;;14.5;;
64022;SDS011;50264;52.088;5.296;2023-03-03T09:15:46;27.1;;;16.0;;
64022;SDS011;50264;52.088;5.296;2023-03-03T09:17:24;22.0;;;14.3;;
64022;SDS011;50264;52.088;5.296;2023-03-03T09:19:18;22.9;;;13.8;;
64022;SDS011;50264;52.088;5.296;2023-03-03T09:22:35;22.9;;;14.4;;
64022;SDS011;50264;52.088;5.296;2023-03-03T09:24:16;19.8;;;12.9;;
64022;SDS011;50264;52.088;5.296;2023-03-03T09:26:10;19.3;;;12.5;;
64022;SDS011;50264;52.088;5.296;2023-03-03T09:28:07;19.41;;;13.2;;
64022;SDS011;50264;52.088;5.296;2023-03-03T09:29:59;18.3;;;13.3;;
64022;SDS011;50264;52.088;5.296;2023-03-03T09:33:19;26.2;;;14.1;;
64022;SDS011;50264;52.088;5.296;2023-03-03T09:34:59;18.41;;;13.1;;
64022;SDS011;50264;52.088;5.296;2023-03-03T09:37:14;17.8;;;12.5;;
64022;SDS011;50264;52.088;5.296;2023-03-03T09:38:57;15.9;;;11.1;;
64022;SDS011;50264;52.088;5.296;2023-03-03T09:40:39;17.91;;;11.8;;
64022;SDS011;50264;52.088;5.296;2023-03-03T09:43:00;18.8;;;11.7;;
64022;SDS011;50264;52.088;5.296;2023-03-03T09:44:44;19.8;;;11.0;;
64022;SDS011;50264;52.088;5.296;2023-03-03T09:47:48;16.11;;;11.2;;
64022;SDS011;50264;52.088;5.296;2023-03-03T09:49:39;18.41;;;11.2;;
64022;SDS011;50264;52.088;5.296;2023-03-03T09:51:35;22.8;;;11.9;;
64022;SDS011;50264;52.088;5.296;2023-03-03T09:53:53;15.0;;;11.3;;
64022;SDS011;50264;52.088;5.296;2023-03-03T09:55:56;19.8;;;11.8;;
64022;SDS011;50264;52.088;5.296;2023-03-03T09:57:44;14.4;;;11.0;;
64022;SDS011;50264;52.088;5.296;2023-03-03T09:59:37;14.5;;;10.1;;
64022;SDS011;50264;52.088;5.296;2023-03-03T10:01:42;18.7;;;10.3;;
64022;SDS011;50264;52.088;5.296;2023-03-03T10:04:02;16.4;;;10.7;;
64022;SDS011;50264;52.088;5.296;2023-03-03T10:06:47;22.3;;;11.9;;
64022;SDS011;50264;52.088;5.296;2023-03-03T10:08:40;15.5;;;11.4;;
64022;SDS011;50264;52.088;5.296;2023-03-03T10:10:42;17.5;;;10.9;;
64022;SDS011;50264;52.088;5.296;2023-03-03T10:12:55;16.0;;;10.21;;
64022;SDS011;50264;52.088;5.296;2023-03-03T10:14:51;15.9;;;10.3;;
64022;SDS011;50264;52.088;5.296;2023-03-03T10:17:10;15.5;;;10.6;;
64022;SDS011;50264;52.088;5.296;2023-03-03T10:19:01;16.61;;;10.4;;
64022;SDS011;50264;52.088;5.296;2023-03-03T10:20:46;11.9;;;8.9;;
64022;SDS011;50264;52.088;5.296;2023-03-03T10:22:38;15.2;;;10.0;;
64022;SDS011;50264;52.088;5.296;2023-03-03T10:26:07;11.2;;;8.31;;
64022;SDS011;50264;52.088;5.296;2023-03-03T10:29:56;14.4;;;8.2;;
64022;SDS011;50264;52.088;5.296;2023-03-03T10:31:45;11.2;;;6.9;;
64022;SDS011;50264;52.088;5.296;2023-03-03T10:33:37;14.5;;;7.1;;
64022;SDS011;50264;52.088;5.296;2023-03-03T10:35:27;14.5;;;7.1;;
64022;SDS011;50264;52.088;5.296;2023-03-03T10:37:14;9.31;;;6.2;;
64022;SDS011;50264;52.088;5.296;2023-03-03T10:39:02;9.21;;;6.1;;
64022;SDS011;50264;52.088;5.296;2023-03-03T10:40:57;6.2;;;5.3;;
64022;SDS011;50264;52.088;5.296;2023-03-03T10:42:50;8.4;;;5.2;;
64022;SDS011;50264;52.088;5.296;2023-03-03T10:46:43;9.4;;;6.4;;
64022;SDS011;50264;52.088;5.296;2023-03-03T10:48:38;7.7;;;4.8;;
64022;SDS011;50264;52.088;5.296;2023-03-03T10:50:29;6.7;;;4.8;;
64022;SDS011;50264;52.088;5.296;2023-03-03T10:52:18;9.81;;;4.2;;
64022;SDS011;50264;52.088;5.296;2023-03-03T10:54:08;9.31;;;4.1;;
64022;SDS011;50264;52.088;5.296;2023-03-03T10:56:08;10.9;;;6.1;;
64022;SDS011;50264;52.088;5.296;2023-03-03T10:58:20;7.8;;;5.5;;
64022;SDS011;50264;52.088;5.296;2023-03-03T11:00:15;14.2;;;5.6;;
64022;SDS011;50264;52.088;5.296;2023-03-03T11:02:00;8.71;;;5.2;;
64022;SDS011;50264;52.088;5.296;2023-03-03T11:03:50;9.4;;;5.11;;
64022;SDS011;50264;52.088;5.296;2023-03-03T11:06:57;7.4;;;4.7;;
64022;SDS011;50264;52.088;5.296;2023-03-03T11:08:42;8.9;;;4.41;;
64022;SDS011;50264;52.088;5.296;2023-03-03T11:10:27;10.3;;;4.5;;
64022;SDS011;50264;52.088;5.296;2023-03-03T11:12:25;12.4;;;4.91;;
64022;SDS011;50264;52.088;5.296;2023-03-03T11:14:15;9.21;;;4.1;;
64022;SDS011;50264;52.088;5.296;2023-03-03T11:18:01;6.4;;;3.7;;
64022;SDS011;50264;52.088;5.296;2023-03-03T11:19:51;6.2;;;3.7;;
64022;SDS011;50264;52.088;5.296;2023-03-03T11:21:40;4.91;;;4.0;;
64022;SDS011;50264;52.088;5.296;2023-03-03T11:23:30;8.6;;;3.5;;
64022;SDS011;50264;52.088;5.296;2023-03-03T11:25:24;6.7;;;3.5;;
64022;SDS011;50264;52.088;5.296;2023-03-03T11:27:09;6.5;;;3.5;;
64022;SDS011;50264;52.088;5.296;2023-03-03T11:29:06;5.5;;;3.3;;
64022;SDS011;50264;52.088;5.296;2023-03-03T11:30:59;9.0;;;4.0;;
64022;SDS011;50264;52.088;5.296;2023-03-03T11:34:37;5.0;;;3.5;;
64022;SDS011;50264;52.088;5.296;2023-03-03T11:36:33;9.31;;;3.8;;
64022;SDS011;50264;52.088;5.296;2023-03-03T11:38:19;4.61;;;3.4;;
64022;SDS011;50264;52.088;5.296;2023-03-03T11:40:58;14.6;;;3.5;;
64022;SDS011;50264;52.088;5.296;2023-03-03T11:42:41;7.2;;;3.5;;
64022;SDS011;50264;52.088;5.296;2023-03-03T11:44:30;7.3;;;3.5;;
64022;SDS011;50264;52.088;5.296;2023-03-03T11:46:12;6.1;;;3.3;;
64022;SDS011;50264;52.088;5.296;2023-03-03T11:47:54;6.6;;;3.4;;
64022;SDS011;50264;52.088;5.296;2023-03-03T11:51:24;5.5;;;2.9;;
64022;SDS011;50264;52.088;5.296;2023-03-03T11:53:17;6.3;;;2.6;;
64022;SDS011;50264;52.088;5.296;2023-03-03T11:55:19;4.7;;;3.1;;
64022;SDS011;50264;52.088;5.296;2023-03-03T11:57:09;9.4;;;3.4;;
64022;SDS011;50264;52.088;5.296;2023-03-03T11:58:57;5.8;;;3.0;;
64022;SDS011;50264;52.088;5.296;2023-03-03T12:00:46;3.5;;;3.0;;
64022;SDS011;50264;52.088;5.296;2023-03-03T12:02:32;4.5;;;3.3;;
64022;SDS011;50264;52.088;5.296;2023-03-03T12:04:29;4.7;;;3.2;;
64022;SDS011;50264;52.088;5.296;2023-03-03T12:08:01;6.3;;;3.4;;
64022;SDS011;50264;52.088;5.296;2023-03-03T12:09:54;6.6;;;3.1;;
64022;SDS011;50264;52.088;5.296;2023-03-03T12:11:46;4.91;;;2.8;;
64022;SDS011;50264;52.088;5.296;2023-03-03T12:13:29;7.8;;;3.1;;
64022;SDS011;50264;52.088;5.296;2023-03-03T12:15:21;8.1;;;3.4;;
64022;SDS011;50264;52.088;5.296;2023-03-03T12:17:11;4.1;;;2.9;;
64022;SDS011;50264;52.088;5.296;2023-03-03T12:19:06;4.91;;;2.8;;
64022;SDS011;50264;52.088;5.296;2023-03-03T12:22:51;4.91;;;2.6;;
64022;SDS011;50264;52.088;5.296;2023-03-03T12:24:45;5.5;;;2.8;;
64022;SDS011;50264;52.088;5.296;2023-03-03T12:26:38;4.8;;;2.9;;
64022;SDS011;50264;52.088;5.296;2023-03-03T12:28:26;4.3;;;2.5;;
64022;SDS011;50264;52.088;5.296;2023-03-03T12:30:12;5.2;;;2.31;;
64022;SDS011;50264;52.088;5.296;2023-03-03T12:32:03;5.8;;;2.4;;
64022;SDS011;50264;52.088;5.296;2023-03-03T12:33:53;8.5;;;2.6;;
64022;SDS011;50264;52.088;5.296;2023-03-03T12:37:20;2.7;;;1.9;;
64022;SDS011;50264;52.088;5.296;2023-03-03T12:39:09;3.5;;;1.9;;
64022;SDS011;50264;52.088;5.296;2023-03-03T12:40:55;5.0;;;2.31;;
64022;SDS011;50264;52.088;5.296;2023-03-03T12:42:41;4.3;;;2.21;;
64022;SDS011;50264;52.088;5.296;2023-03-03T12:44:33;3.0;;;2.1;;